»·PEaware :: N3MZ KSAN-KPSP

N3MZ :: KSAN-KPSP

FLIGHT INFORMATION

Flight Status: Arrived
Operator: Privately registered:
United States
More flights under this callsign
Pilot: Mike Z. (25595)
Aircraft: CESSNA 208 CARAVAN
(C208)
More flights by this aircraft type
Origin: KSAN San Diego Intl-Lindbergh
United States
Destination: KPSP Palm Springs Intl
United States
More flights between these airports :: More routes between these airports
Route: JLI V208 TRM
File this flight plan on PilotEdge
Remarks:
Altitude:
(Current/Filed)
9,000ft
Speed:
(Current/Filed)
170kts
Departed: 12-Dec-19 04:03 PM
Arrived: 12-Dec-19 04:51 PM
Distance/Time
Traveled:
74nm/0:48
Distance/Time
To Go:
Arrived

Flight Plot

Page will automatically refresh every two minutes.


Map Options




Map Legend


Flown Route
Filed Route
Departure Airport
Arrival Airport
Navaid (VOR, NDB)
Fix

Horizontal Profiles

Position Reports

Time Latitude Longitude Heading Altitude Ground
Speed
12-Dec-19 15:52 32.732421 -117.176641 194 23ft 0kts
12-Dec-19 15:53 32.732421 -117.176641 194 23ft 0kts
12-Dec-19 15:54 32.732421 -117.176641 194 23ft 0kts
12-Dec-19 15:55 32.732421 -117.176641 194 23ft 0kts
12-Dec-19 15:56 32.732421 -117.176641 194 23ft 0kts
12-Dec-19 15:57 32.732421 -117.176641 194 23ft 0kts
12-Dec-19 15:58 32.732421 -117.176641 194 23ft 0kts
12-Dec-19 15:59 32.731016 -117.175384 153 23ft 0kts
12-Dec-19 16:00 32.731016 -117.175383 153 23ft 0kts
12-Dec-19 16:01 32.731016 -117.175383 153 23ft 0kts
12-Dec-19 16:02 32.730231 -117.175969 280 22ft 20kts
12-Dec-19 16:03 32.737742 -117.201031 329 777ft 101kts
12-Dec-19 16:04 32.759900 -117.221184 321 2025ft 104kts
12-Dec-19 16:04 32.779380 -117.238919 317 2990ft 105kts
12-Dec-19 16:06 32.805675 -117.264531 319 4182ft 103kts
12-Dec-19 16:07 32.830745 -117.273728 44 5243ft 118kts
12-Dec-19 16:07 32.843637 -117.244316 51 6123ft 120kts
12-Dec-19 16:09 32.862914 -117.204500 53 7291ft 119kts
12-Dec-19 16:09 32.876007 -117.175890 53 8083ft 118kts
12-Dec-19 16:10 32.891472 -117.141795 52 8957ft 120kts
12-Dec-19 16:11 32.910441 -117.099889 55 8992ft 159kts
12-Dec-19 16:12 32.931828 -117.052144 55 8991ft 165kts
12-Dec-19 16:13 32.953550 -117.003850 55 8992ft 165kts
12-Dec-19 16:14 32.975495 -116.955065 54 8994ft 167kts
12-Dec-19 16:15 32.997501 -116.906091 54 8996ft 168kts
12-Dec-19 16:16 33.019634 -116.856770 54 8998ft 169kts
12-Dec-19 16:17 33.041936 -116.806992 54 8998ft 170kts
12-Dec-19 16:18 33.064294 -116.757020 54 8998ft 171kts
12-Dec-19 16:19 33.086742 -116.706773 54 8998ft 172kts
12-Dec-19 16:20 33.109379 -116.656037 55 9002ft 174kts
12-Dec-19 16:21 33.132193 -116.604825 55 9002ft 175kts
12-Dec-19 16:22 33.164731 -116.565550 29 9002ft 166kts
12-Dec-19 16:23 33.201725 -116.533029 28 9002ft 165kts
12-Dec-19 16:24 33.238789 -116.500769 28 9002ft 164kts
12-Dec-19 16:25 33.275649 -116.468698 28 9002ft 164kts
12-Dec-19 16:26 33.312542 -116.436573 28 9003ft 163kts
12-Dec-19 16:27 33.349268 -116.404544 28 9002ft 163kts
12-Dec-19 16:28 33.385794 -116.372597 28 9002ft 162kts
12-Dec-19 16:29 33.422395 -116.340618 29 8999ft 162kts
12-Dec-19 16:30 33.458833 -116.308754 29 8999ft 162kts
12-Dec-19 16:31 33.495157 -116.276957 29 8999ft 162kts
12-Dec-19 16:32 33.532248 -116.244512 29 8705ft 175kts
12-Dec-19 16:33 33.572878 -116.208768 30 8001ft 176kts
12-Dec-19 16:34 33.609529 -116.176516 31 6244ft 156kts
12-Dec-19 16:35 33.633076 -116.147907 105 4242ft 163kts
12-Dec-19 16:36 33.615645 -116.103304 115 3998ft 150kts
12-Dec-19 16:37 33.589637 -116.094132 254 3998ft 109kts
12-Dec-19 16:38 33.604266 -116.117671 325 4008ft 109kts
12-Dec-19 16:39 33.621108 -116.150016 307 3998ft 112kts
12-Dec-19 16:40 33.640752 -116.178861 312 3912ft 114kts
12-Dec-19 16:41 33.657992 -116.211129 294 3787ft 106kts
12-Dec-19 16:42 33.676569 -116.243479 299 3813ft 121kts
12-Dec-19 16:43 33.695859 -116.276537 299 3531ft 121kts
12-Dec-19 16:44 33.717228 -116.313401 301 3051ft 172kts
12-Dec-19 16:45 33.745173 -116.361019 302 3010ft 174kts
12-Dec-19 16:46 33.771447 -116.406642 307 2953ft 136kts
12-Dec-19 16:47 33.791703 -116.436845 303 2500ft 99kts
12-Dec-19 16:48 33.807976 -116.469207 304 2373ft 115kts
12-Dec-19 16:49 33.821898 -116.500798 323 439ft 96kts
12-Dec-19 16:50 33.830801 -116.507165 6 428ft 9kts
12-Dec-19 16:51 33.829667 -116.503808 143 419ft 29kts
12-Dec-19 16:52 33.824057 -116.498397 88 400ft 10kts
12-Dec-19 16:53 33.824084 -116.498326 54 400ft 0kts
12-Dec-19 16:54 33.824084 -116.498326 54 400ft 0kts
12-Dec-19 16:55 33.824084 -116.498326 54 400ft 0kts
12-Dec-19 16:56 33.824084 -116.498326 54 400ft 0kts
12-Dec-19 16:57 33.824084 -116.498326 54 400ft 0kts
12-Dec-19 16:58 33.824084 -116.498326 54 400ft 0kts
12-Dec-19 16:59 33.824084 -116.498326 54 400ft 0kts
12-Dec-19 17:00 33.824084 -116.498326 54 400ft 0kts
12-Dec-19 17:01 33.824084 -116.498326 54 400ft 0kts
12-Dec-19 17:02 33.824084 -116.498326 54 400ft 0kts
12-Dec-19 17:03 33.824084 -116.498326 54 400ft 0kts
12-Dec-19 17:04 33.824084 -116.498326 54 400ft 0kts

Navigation Log

Ident Type
Flight plan parsing failed, navigation log unavailable